createdAt,value
2017-08-20T00:03:10.283Z,1012.1
2017-08-20T00:13:25.706Z,1012.1
2017-08-20T00:23:41.102Z,1012.1
2017-08-20T00:33:55.942Z,1012.1
2017-08-20T00:44:10.923Z,1012.2
2017-08-20T00:54:26.542Z,1012.3
2017-08-20T01:04:40.651Z,1012.2
2017-08-20T01:14:55.336Z,1012.2
2017-08-20T01:25:09.205Z,1012.1
2017-08-20T01:35:24.498Z,1012.2
2017-08-20T01:45:38.687Z,1012.2
2017-08-20T01:55:53.094Z,1012.3
2017-08-20T02:06:07.432Z,1012.3
2017-08-20T02:16:22.348Z,1012.3
2017-08-20T02:26:38.013Z,1012.3
2017-08-20T02:36:52.304Z,1012.3
2017-08-20T02:47:07.500Z,1012.4
2017-08-20T02:57:22.554Z,1012.4
2017-08-20T03:07:37.313Z,1012.5
2017-08-20T03:17:51.060Z,1012.5
2017-08-20T03:28:05.404Z,1012.7
2017-08-20T03:38:19.318Z,1012.6
2017-08-20T03:48:33.469Z,1012.8
2017-08-20T03:58:47.316Z,1012.8
2017-08-20T04:09:01.700Z,1012.8
2017-08-20T04:19:16.505Z,1012.8
2017-08-20T04:29:31.969Z,1012.9
2017-08-20T04:39:47.378Z,1013
2017-08-20T04:50:02.150Z,1013.1
2017-08-20T05:00:16.722Z,1013.2
2017-08-20T05:10:30.783Z,1013.3
2017-08-20T05:20:45.468Z,1013.4
2017-08-20T05:31:00.188Z,1013.4
2017-08-20T05:41:14.251Z,1013.5
2017-08-20T05:51:28.895Z,1013.6
2017-08-20T06:01:42.820Z,1013.7
2017-08-20T06:11:56.927Z,1013.9
2017-08-20T06:22:11.889Z,1014
2017-08-20T06:32:25.854Z,1014
2017-08-20T06:42:40.187Z,1014
2017-08-20T06:52:54.004Z,1014.1
2017-08-20T07:03:09.692Z,1014
2017-08-20T07:13:24.170Z,1014.3
2017-08-20T07:23:38.970Z,1014.3
2017-08-20T07:33:54.440Z,1014.4
2017-08-20T07:44:09.019Z,1014.4
2017-08-20T07:54:22.897Z,1014.7
2017-08-20T08:04:37.209Z,1014.7
2017-08-20T08:14:52.160Z,1014.6
2017-08-20T08:25:07.999Z,1014.7
2017-08-20T08:35:22.832Z,1014.8
2017-08-20T08:45:38.099Z,1015.1
2017-08-20T08:55:52.771Z,1015.1
2017-08-20T09:06:06.664Z,1015.1
2017-08-20T09:16:20.890Z,1015
2017-08-20T09:26:34.783Z,1015.2
2017-08-20T09:36:49.860Z,1014.9
2017-08-20T09:47:05.019Z,1015.1
2017-08-20T09:57:18.906Z,1015.1
2017-08-20T10:07:33.743Z,1015.5
2017-08-20T10:17:48.849Z,1015
2017-08-20T10:28:03.430Z,1015.1
2017-08-20T10:38:18.362Z,1015.3
2017-08-20T10:48:32.477Z,1015.1
2017-08-20T10:58:47.757Z,1015.3
2017-08-20T11:09:02.802Z,1015.2
2017-08-20T11:19:16.866Z,1015.4
2017-08-20T11:29:30.819Z,1015.1
2017-08-20T11:39:45.978Z,1015.5
2017-08-20T11:50:01.351Z,1015.2
2017-08-20T12:00:17.009Z,1015.3
2017-08-20T12:10:31.937Z,1015.9
2017-08-20T12:20:46.436Z,1015.8
2017-08-20T12:31:01.175Z,1015.5
2017-08-20T12:41:15.510Z,1015.7
2017-08-20T12:51:30.074Z,1015.7
2017-08-20T13:01:44.059Z,1016.2
2017-08-20T13:11:58.911Z,1015.8
2017-08-20T13:22:13.785Z,1016
2017-08-20T13:32:29.481Z,1015.8
2017-08-20T13:42:43.467Z,1015.8
2017-08-20T13:52:59.055Z,1015.5
2017-08-20T14:03:14.081Z,1015.2
2017-08-20T14:13:29.674Z,1015.2
2017-08-20T14:23:45.396Z,1015.4
2017-08-20T14:33:59.698Z,1015.5
2017-08-20T14:44:13.661Z,1015.5
2017-08-20T14:54:28.446Z,1015.3
2017-08-20T15:04:42.975Z,1015.1
2017-08-20T15:14:57.318Z,1015.4
2017-08-20T15:25:12.631Z,1015.5
2017-08-20T15:35:26.689Z,1015.8
2017-08-20T15:45:42.203Z,1015.7
2017-08-20T15:55:57.168Z,1015.7
2017-08-20T16:06:11.388Z,1015.8
2017-08-20T16:16:25.748Z,1015.6
2017-08-20T16:26:40.110Z,1015.6
2017-08-20T16:36:54.870Z,1015.6
2017-08-20T16:47:09.751Z,1015.5
2017-08-20T16:57:25.118Z,1015.5
2017-08-20T17:07:39.160Z,1015.4
2017-08-20T17:17:53.071Z,1015.4
2017-08-20T17:28:08.445Z,1015.4
2017-08-20T17:38:23.918Z,1015.4
2017-08-20T17:48:37.833Z,1015.5
2017-08-20T17:58:53.559Z,1015.7
2017-08-20T18:09:08.312Z,1015.6
2017-08-20T18:19:22.960Z,1015.9
2017-08-20T18:29:38.119Z,1015.9
2017-08-20T18:39:53.352Z,1016
2017-08-20T18:50:08.753Z,1016
2017-08-20T19:00:23.171Z,1016.1
2017-08-20T19:10:38.697Z,1016.2
2017-08-20T19:20:52.485Z,1016.4
2017-08-20T19:31:07.241Z,1016.4
2017-08-20T19:41:21.667Z,1016.6
2017-08-20T19:51:37.002Z,1016.7
2017-08-20T20:01:52.465Z,1016.7
2017-08-20T20:12:07.190Z,1016.6
2017-08-20T20:22:21.806Z,1016.7
2017-08-20T20:32:36.799Z,1016.7
2017-08-20T20:42:50.767Z,1016.7
2017-08-20T20:53:05.105Z,1016.7
2017-08-20T21:03:20.042Z,1016.7
2017-08-20T21:13:34.147Z,1016.7
2017-08-20T21:23:49.757Z,1016.8
2017-08-20T21:34:05.217Z,1016.8
2017-08-20T21:44:19.346Z,1016.7
2017-08-20T21:54:33.810Z,1016.7
2017-08-20T22:04:48.557Z,1016.7
2017-08-20T22:15:04.024Z,1016.6
2017-08-20T22:25:18.744Z,1016.6
2017-08-20T22:35:32.592Z,1016.5
2017-08-20T22:45:46.961Z,1016.5
2017-08-20T22:56:02.422Z,1016.4
2017-08-20T23:06:16.390Z,1016.4
2017-08-20T23:16:31.560Z,1016.4
2017-08-20T23:26:46.887Z,1016.4
2017-08-20T23:37:01.322Z,1016.4
2017-08-20T23:47:16.794Z,1016.5
2017-08-20T23:57:31.354Z,1016.4
